createdAt,value
2023-03-22T00:00:27.530Z,48.50
2023-03-22T00:02:55.669Z,49.25
2023-03-22T00:05:22.086Z,51.00
2023-03-22T00:07:50.259Z,46.75
2023-03-22T00:10:16.704Z,45.50
2023-03-22T00:12:43.273Z,44.50
2023-03-22T00:15:11.188Z,45.25
2023-03-22T00:17:38.283Z,42.00
2023-03-22T00:20:06.597Z,46.00
2023-03-22T00:22:33.101Z,17.25
2023-03-22T00:24:59.467Z,43.75
2023-03-22T00:27:26.050Z,46.50
2023-03-22T00:29:52.649Z,51.25
2023-03-22T00:32:19.048Z,51.00
2023-03-22T00:34:45.592Z,57.25
2023-03-22T00:37:12.137Z,50.50
2023-03-22T00:39:38.491Z,41.75
2023-03-22T00:42:06.251Z,43.75
2023-03-22T00:44:33.030Z,43.00
2023-03-22T00:46:59.335Z,41.00
2023-03-22T00:49:25.924Z,40.75
2023-03-22T00:51:52.382Z,47.00
2023-03-22T00:54:18.929Z,46.00
2023-03-22T00:56:45.524Z,40.75
2023-03-22T00:59:12.771Z,41.25
2023-03-22T01:01:39.791Z,44.50
2023-03-22T01:04:06.311Z,41.75
2023-03-22T01:06:33.254Z,44.75
2023-03-22T01:08:59.717Z,41.25
2023-03-22T01:11:26.670Z,41.00
2023-03-22T01:13:53.622Z,40.75
2023-03-22T01:16:20.219Z,42.75
2023-03-22T01:18:46.808Z,42.25
2023-03-22T01:21:13.460Z,38.25
2023-03-22T01:23:39.912Z,40.75
2023-03-22T01:26:06.612Z,36.25
2023-03-22T01:28:33.029Z,38.50
2023-03-22T01:31:02.688Z,39.25
2023-03-22T01:33:29.159Z,38.00
2023-03-22T01:35:55.939Z,40.00
2023-03-22T01:38:22.456Z,39.25
2023-03-22T01:40:48.907Z,37.25
2023-03-22T01:43:17.094Z,43.00
2023-03-22T01:45:46.254Z,39.50
2023-03-22T01:48:15.933Z,44.25
2023-03-22T01:50:44.716Z,44.50
2023-03-22T01:53:13.727Z,44.25
2023-03-22T01:55:41.107Z,38.00
2023-03-22T01:58:07.635Z,44.00
2023-03-22T02:00:34.185Z,39.50
2023-03-22T02:03:00.787Z,37.25
2023-03-22T02:05:27.641Z,40.00
2023-03-22T02:07:54.070Z,34.50
2023-03-22T02:10:23.270Z,34.25
2023-03-22T02:13:03.692Z,33.75
2023-03-22T02:15:36.126Z,35.50
2023-03-22T02:18:21.189Z,34.25
2023-03-22T02:20:50.703Z,36.00
2023-03-22T02:23:40.513Z,37.75
2023-03-22T02:26:30.046Z,34.00
2023-03-22T02:29:17.865Z,29.25
2023-03-22T02:31:50.663Z,32.25
2023-03-22T02:34:17.041Z,9.75
2023-03-22T02:36:58.563Z,30.75
2023-03-22T02:39:39.789Z,33.00
2023-03-22T02:42:12.038Z,32.50
2023-03-22T02:45:00.263Z,34.25
2023-03-22T02:47:26.590Z,33.75
2023-03-22T02:49:58.323Z,34.00
2023-03-22T02:52:40.777Z,29.25
2023-03-22T02:55:10.555Z,34.00
2023-03-22T02:57:54.203Z,32.75
2023-03-22T03:00:21.100Z,35.00
2023-03-22T03:02:50.664Z,33.00
2023-03-22T03:05:20.957Z,44.00
2023-03-22T03:07:50.952Z,36.50
2023-03-22T03:10:21.205Z,36.75
2023-03-22T03:13:00.297Z,29.50
2023-03-22T03:15:28.086Z,33.25
2023-03-22T03:18:13.857Z,39.50
2023-03-22T03:21:02.500Z,35.75
2023-03-22T03:34:49.820Z,34.00
2023-03-22T03:37:18.661Z,39.25
2023-03-22T03:39:49.267Z,52.00
2023-03-22T03:42:16.532Z,51.00
2023-03-22T03:44:43.404Z,51.75
2023-03-22T03:47:10.817Z,53.50
2023-03-22T03:49:37.298Z,40.75
2023-03-22T03:52:04.242Z,34.00
2023-03-22T04:00:01.573Z,32.25
2023-03-22T04:02:32.060Z,33.00
2023-03-22T04:07:40.461Z,38.25
2023-03-22T04:10:07.383Z,15.75
2023-03-22T04:12:34.381Z,37.25
2023-03-22T04:15:04.488Z,36.50
2023-03-22T04:17:40.362Z,36.00
2023-03-22T04:20:20.905Z,38.00
2023-03-22T04:22:53.727Z,38.75
2023-03-22T04:25:25.540Z,35.25
2023-03-22T04:27:52.010Z,34.00
2023-03-22T04:30:20.278Z,37.75
2023-03-22T04:32:52.077Z,33.50
2023-03-22T04:35:18.870Z,33.25
2023-03-22T04:37:45.852Z,37.50
2023-03-22T04:40:17.512Z,31.00
2023-03-22T04:42:44.410Z,34.25
2023-03-22T04:45:11.810Z,35.00
2023-03-22T04:47:38.275Z,28.50
2023-03-22T04:50:05.762Z,35.00
2023-03-22T04:52:33.214Z,31.25
2023-03-22T04:55:00.005Z,33.25
2023-03-22T04:57:26.741Z,34.00
2023-03-22T04:59:53.053Z,34.50
2023-03-22T05:02:19.422Z,30.25
2023-03-22T05:04:45.841Z,32.75
2023-03-22T05:07:12.245Z,32.25
2023-03-22T05:09:38.632Z,33.25
2023-03-22T05:12:05.091Z,32.75
2023-03-22T05:14:31.691Z,32.00
2023-03-22T05:16:58.364Z,32.00
2023-03-22T05:19:24.890Z,33.25
2023-03-22T05:21:58.594Z,33.25
2023-03-22T05:24:25.119Z,33.00
2023-03-22T05:26:53.982Z,31.50
2023-03-22T05:29:21.568Z,33.00
2023-03-22T05:31:48.313Z,33.75
2023-03-22T05:34:14.823Z,33.50
2023-03-22T05:36:41.216Z,28.00
2023-03-22T05:39:08.158Z,30.75
2023-03-22T05:41:36.514Z,34.25
2023-03-22T05:44:03.338Z,29.75
2023-03-22T05:46:29.818Z,42.75
2023-03-22T05:48:56.205Z,38.25
2023-03-22T05:51:25.788Z,38.00
2023-03-22T05:53:53.556Z,32.50
2023-03-22T05:56:24.229Z,36.50
2023-03-22T05:58:51.820Z,32.00
2023-03-22T06:01:20.361Z,37.00
2023-03-22T06:03:48.212Z,35.00
2023-03-22T06:06:14.640Z,33.00
2023-03-22T06:08:41.333Z,33.50
2023-03-22T06:11:08.110Z,29.75
2023-03-22T06:13:34.670Z,34.00
2023-03-22T06:16:02.185Z,30.50
2023-03-22T06:18:29.348Z,33.00
2023-03-22T06:20:55.735Z,35.00
2023-03-22T06:23:22.114Z,31.75
2023-03-22T06:25:48.597Z,35.50
2023-03-22T06:28:15.333Z,36.25
2023-03-22T06:30:42.301Z,36.00
2023-03-22T06:33:08.778Z,35.00
2023-03-22T06:35:35.471Z,35.50
2023-03-22T06:38:02.053Z,34.00
2023-03-22T06:40:28.626Z,36.00
2023-03-22T06:42:55.043Z,34.50
2023-03-22T06:45:21.874Z,32.00
2023-03-22T06:47:48.525Z,34.75
2023-03-22T06:50:15.854Z,33.25
2023-03-22T06:52:42.277Z,34.25
2023-03-22T06:55:09.025Z,31.00
2023-03-22T06:57:35.420Z,33.25
2023-03-22T07:00:02.006Z,33.25
2023-03-22T07:02:28.407Z,28.00
2023-03-22T07:04:54.725Z,29.50
2023-03-22T07:07:21.089Z,32.25
2023-03-22T07:09:47.683Z,31.75
2023-03-22T07:12:14.074Z,30.00
2023-03-22T07:14:40.888Z,31.25
2023-03-22T07:17:07.313Z,31.25
2023-03-22T07:19:33.759Z,31.25
2023-03-22T07:22:00.263Z,32.00
2023-03-22T07:24:26.734Z,32.25
2023-03-22T07:26:53.237Z,32.00
2023-03-22T07:29:19.666Z,32.25
2023-03-22T07:31:46.176Z,31.50
2023-03-22T07:34:12.714Z,33.25
2023-03-22T07:36:39.114Z,31.50
2023-03-22T07:39:06.060Z,33.75
2023-03-22T07:41:32.544Z,33.00
2023-03-22T07:44:11.440Z,31.00
2023-03-22T07:46:43.707Z,32.50
2023-03-22T07:49:10.398Z,32.00
2023-03-22T07:51:36.756Z,27.75
2023-03-22T07:54:03.212Z,31.25
2023-03-22T07:56:29.539Z,31.50
2023-03-22T07:58:56.338Z,31.00
2023-03-22T08:01:22.844Z,31.50
2023-03-22T08:03:49.226Z,31.25
2023-03-22T08:06:16.506Z,26.25
2023-03-22T08:08:42.913Z,14.00
2023-03-22T08:11:10.583Z,32.25
2023-03-22T08:13:37.956Z,30.25
2023-03-22T08:16:04.604Z,31.25
2023-03-22T08:18:31.065Z,34.00
2023-03-22T08:20:58.945Z,30.00
2023-03-22T08:23:38.503Z,33.25
2023-03-22T08:26:07.874Z,32.25
2023-03-22T08:28:34.307Z,33.25
2023-03-22T08:31:00.740Z,32.75
2023-03-22T08:33:28.141Z,34.25
2023-03-22T08:36:04.437Z,34.25
2023-03-22T08:38:30.877Z,29.00
2023-03-22T08:40:57.363Z,33.00
2023-03-22T08:43:23.805Z,32.00
2023-03-22T08:45:50.300Z,33.00
2023-03-22T08:48:16.775Z,32.75
2023-03-22T08:50:43.300Z,31.00
2023-03-22T08:53:11.131Z,30.50
2023-03-22T08:55:37.750Z,33.50
2023-03-22T08:58:05.375Z,31.00
2023-03-22T09:00:45.678Z,32.25
2023-03-22T09:03:14.503Z,33.75
2023-03-22T09:05:41.580Z,33.75
2023-03-22T09:08:08.769Z,33.75
2023-03-22T09:10:38.009Z,36.25
2023-03-22T09:13:04.381Z,32.25
2023-03-22T09:15:30.926Z,30.25
2023-03-22T09:17:57.293Z,33.00
2023-03-22T09:20:25.945Z,32.50
2023-03-22T09:22:52.636Z,33.00
2023-03-22T09:25:19.054Z,32.75
2023-03-22T09:27:45.889Z,31.75
2023-03-22T09:30:12.495Z,29.25
2023-03-22T09:32:39.598Z,32.00
2023-03-22T09:35:06.955Z,30.00
2023-03-22T09:37:34.355Z,31.50
2023-03-22T09:40:00.893Z,32.75
2023-03-22T09:42:33.956Z,32.25
2023-03-22T09:45:01.517Z,31.75
2023-03-22T09:47:43.922Z,31.50
2023-03-22T09:50:31.304Z,33.75
2023-03-22T09:52:58.659Z,32.00
2023-03-22T09:55:40.397Z,29.50
2023-03-22T09:58:09.926Z,29.00
2023-03-22T10:00:48.030Z,32.25
2023-03-22T10:03:30.373Z,30.50
2023-03-22T10:05:59.993Z,27.50
2023-03-22T10:08:44.957Z,29.75
2023-03-22T10:11:25.153Z,28.00
2023-03-22T10:13:57.839Z,28.00
2023-03-22T10:16:29.472Z,27.33
2023-03-22T10:19:01.780Z,27.00
2023-03-22T10:21:29.280Z,24.00
2023-03-22T10:23:57.865Z,25.25
2023-03-22T10:26:34.579Z,21.25
2023-03-22T10:29:04.090Z,21.00
2023-03-22T10:31:31.370Z,23.00
2023-03-22T10:34:11.125Z,23.75
2023-03-22T10:36:39.146Z,21.25
2023-03-22T10:39:24.233Z,23.50
2023-03-22T10:41:53.125Z,22.75
2023-03-22T10:44:19.999Z,23.50
2023-03-22T10:46:48.126Z,24.00
2023-03-22T10:49:22.747Z,21.25
2023-03-22T10:51:54.604Z,22.75
2023-03-22T10:54:21.809Z,21.25
2023-03-22T10:56:48.236Z,22.25
2023-03-22T10:59:33.248Z,24.00
2023-03-22T11:02:01.681Z,19.00
2023-03-22T11:04:31.198Z,22.00
2023-03-22T11:06:57.626Z,22.50
2023-03-22T11:09:24.434Z,22.25
2023-03-22T11:11:58.503Z,22.00
2023-03-22T11:14:31.420Z,21.75
2023-03-22T11:17:12.657Z,24.75
2023-03-22T11:19:50.405Z,23.75
2023-03-22T11:22:24.459Z,23.00
2023-03-22T11:24:51.529Z,21.75
2023-03-22T11:27:19.795Z,22.75
2023-03-22T11:29:47.800Z,21.50
2023-03-22T11:32:19.961Z,22.25
2023-03-22T11:34:47.386Z,21.00
2023-03-22T11:37:18.064Z,21.25
2023-03-22T11:39:50.474Z,20.00
2023-03-22T11:42:21.031Z,20.25
2023-03-22T11:44:47.456Z,19.50
2023-03-22T11:47:14.127Z,22.75
2023-03-22T11:49:45.502Z,23.00
2023-03-22T11:52:23.328Z,21.00
2023-03-22T11:54:50.356Z,22.25
2023-03-22T11:57:19.565Z,21.00
2023-03-22T11:59:47.918Z,21.00
2023-03-22T12:02:23.813Z,21.00
2023-03-22T12:04:53.221Z,20.75
2023-03-22T12:07:24.657Z,20.50
2023-03-22T12:09:54.777Z,21.00
2023-03-22T12:12:24.553Z,21.50
2023-03-22T12:15:02.421Z,20.00
2023-03-22T12:17:32.417Z,14.00
2023-03-22T12:20:12.831Z,14.50
2023-03-22T12:22:43.249Z,18.00
2023-03-22T12:25:15.862Z,13.25
2023-03-22T12:28:12.707Z,18.75
2023-03-22T12:30:47.139Z,20.00
2023-03-22T12:33:18.486Z,18.00
2023-03-22T12:35:46.322Z,11.50
2023-03-22T12:38:29.641Z,15.50
2023-03-22T12:40:57.833Z,17.00
2023-03-22T12:43:24.239Z,19.00
2023-03-22T12:45:53.379Z,18.25
2023-03-22T12:48:24.982Z,18.75
2023-03-22T12:51:01.157Z,14.50
2023-03-22T12:53:30.729Z,18.75
2023-03-22T12:55:58.305Z,17.00
2023-03-22T12:58:25.862Z,16.75
2023-03-22T13:00:52.314Z,13.75
2023-03-22T13:03:23.189Z,16.75
2023-03-22T13:05:58.856Z,18.00
2023-03-22T13:08:25.548Z,17.00
2023-03-22T13:11:00.107Z,16.75
2023-03-22T13:13:27.674Z,13.00
2023-03-22T13:15:56.828Z,16.50
2023-03-22T13:18:35.737Z,16.25
2023-03-22T13:21:17.383Z,17.25
2023-03-22T13:23:52.926Z,18.75
2023-03-22T13:26:19.746Z,17.00
2023-03-22T13:29:00.096Z,17.50
2023-03-22T13:31:43.893Z,18.50
2023-03-22T13:34:14.935Z,17.50
2023-03-22T13:36:49.313Z,13.00
2023-03-22T13:39:16.487Z,21.00
2023-03-22T13:41:45.852Z,19.25
2023-03-22T13:44:36.172Z,19.50
2023-03-22T13:47:02.703Z,21.00
2023-03-22T13:49:29.208Z,20.50
2023-03-22T13:51:58.802Z,20.00
2023-03-22T13:54:30.064Z,18.75
2023-03-22T13:56:59.569Z,21.00
2023-03-22T13:59:29.932Z,19.00
2023-03-22T14:02:15.883Z,18.00
2023-03-22T14:04:56.418Z,18.00
2023-03-22T14:07:22.843Z,19.25
2023-03-22T14:09:51.191Z,16.00
2023-03-22T14:12:21.259Z,18.25
2023-03-22T14:14:50.807Z,20.00
2023-03-22T14:17:21.941Z,20.00
2023-03-22T14:19:49.747Z,20.00
